sensor_id;sensor_type;location;lat;lon;timestamp;P1;durP1;ratioP1;P2;durP2;ratioP2
56629;SDS011;42502;40.732;-74.254;2022-07-15T00:01:38;0.90;;;0.90;;
56629;SDS011;42502;40.732;-74.254;2022-07-15T00:03:39;1.00;;;0.90;;
56629;SDS011;42502;40.732;-74.254;2022-07-15T00:05:40;0.90;;;0.90;;
56629;SDS011;42502;40.732;-74.254;2022-07-15T00:07:41;1.02;;;0.90;;
56629;SDS011;42502;40.732;-74.254;2022-07-15T00:09:42;1.30;;;0.90;;
56629;SDS011;42502;40.732;-74.254;2022-07-15T00:12:01;0.93;;;0.90;;
56629;SDS011;42502;40.732;-74.254;2022-07-15T00:14:02;1.10;;;1.00;;
56629;SDS011;42502;40.732;-74.254;2022-07-15T00:16:03;1.02;;;0.90;;
56629;SDS011;42502;40.732;-74.254;2022-07-15T00:18:04;0.98;;;0.98;;
56629;SDS011;42502;40.732;-74.254;2022-07-15T00:20:05;1.10;;;1.00;;
56629;SDS011;42502;40.732;-74.254;2022-07-15T00:22:07;1.02;;;0.90;;
56629;SDS011;42502;40.732;-74.254;2022-07-15T00:24:08;0.90;;;0.90;;
56629;SDS011;42502;40.732;-74.254;2022-07-15T00:26:08;0.98;;;0.98;;
56629;SDS011;42502;40.732;-74.254;2022-07-15T00:28:09;1.10;;;1.00;;
56629;SDS011;42502;40.732;-74.254;2022-07-15T00:30:10;1.13;;;1.00;;
56629;SDS011;42502;40.732;-74.254;2022-07-15T00:32:11;0.80;;;0.80;;
56629;SDS011;42502;40.732;-74.254;2022-07-15T00:34:12;0.90;;;0.80;;
56629;SDS011;42502;40.732;-74.254;2022-07-15T00:36:13;0.90;;;0.90;;
56629;SDS011;42502;40.732;-74.254;2022-07-15T00:38:14;1.05;;;0.90;;
56629;SDS011;42502;40.732;-74.254;2022-07-15T00:40:15;0.80;;;0.80;;
56629;SDS011;42502;40.732;-74.254;2022-07-15T00:42:19;0.98;;;0.98;;
56629;SDS011;42502;40.732;-74.254;2022-07-15T00:44:38;1.15;;;1.05;;
56629;SDS011;42502;40.732;-74.254;2022-07-15T00:46:39;0.80;;;0.80;;
56629;SDS011;42502;40.732;-74.254;2022-07-15T00:48:41;1.35;;;0.90;;
56629;SDS011;42502;40.732;-74.254;2022-07-15T00:50:42;0.93;;;0.90;;
56629;SDS011;42502;40.732;-74.254;2022-07-15T00:52:44;1.00;;;0.90;;
56629;SDS011;42502;40.732;-74.254;2022-07-15T00:54:49;1.73;;;0.90;;
56629;SDS011;42502;40.732;-74.254;2022-07-15T00:56:53;0.90;;;0.90;;
56629;SDS011;42502;40.732;-74.254;2022-07-15T00:58:55;1.10;;;1.00;;
56629;SDS011;42502;40.732;-74.254;2022-07-15T01:00:59;0.88;;;0.88;;
56629;SDS011;42502;40.732;-74.254;2022-07-15T01:03:01;1.10;;;0.90;;
56629;SDS011;42502;40.732;-74.254;2022-07-15T01:05:06;1.15;;;0.93;;
56629;SDS011;42502;40.732;-74.254;2022-07-15T01:07:10;0.93;;;0.80;;
56629;SDS011;42502;40.732;-74.254;2022-07-15T01:09:13;0.90;;;0.90;;
56629;SDS011;42502;40.732;-74.254;2022-07-15T01:11:14;0.80;;;0.80;;
56629;SDS011;42502;40.732;-74.254;2022-07-15T01:13:15;1.00;;;1.00;;
56629;SDS011;42502;40.732;-74.254;2022-07-15T01:15:17;0.80;;;0.80;;
56629;SDS011;42502;40.732;-74.254;2022-07-15T01:17:18;1.10;;;1.00;;
56629;SDS011;42502;40.732;-74.254;2022-07-15T01:19:19;1.83;;;1.00;;
56629;SDS011;42502;40.732;-74.254;2022-07-15T01:21:20;1.00;;;1.00;;
56629;SDS011;42502;40.732;-74.254;2022-07-15T01:23:21;0.90;;;0.90;;
56629;SDS011;42502;40.732;-74.254;2022-07-15T01:25:22;0.82;;;0.82;;
56629;SDS011;42502;40.732;-74.254;2022-07-15T01:27:22;1.20;;;1.10;;
56629;SDS011;42502;40.732;-74.254;2022-07-15T01:29:23;1.02;;;0.93;;
56629;SDS011;42502;40.732;-74.254;2022-07-15T01:31:24;1.00;;;0.90;;
56629;SDS011;42502;40.732;-74.254;2022-07-15T01:33:25;0.90;;;0.90;;
56629;SDS011;42502;40.732;-74.254;2022-07-15T01:35:26;0.90;;;0.90;;
56629;SDS011;42502;40.732;-74.254;2022-07-15T01:37:28;0.90;;;0.90;;
56629;SDS011;42502;40.732;-74.254;2022-07-15T01:39:29;1.08;;;0.95;;
56629;SDS011;42502;40.732;-74.254;2022-07-15T01:41:30;1.17;;;1.08;;
56629;SDS011;42502;40.732;-74.254;2022-07-15T01:43:31;1.38;;;1.08;;
56629;SDS011;42502;40.732;-74.254;2022-07-15T01:45:31;2.10;;;1.08;;
56629;SDS011;42502;40.732;-74.254;2022-07-15T01:47:32;0.95;;;0.90;;
56629;SDS011;42502;40.732;-74.254;2022-07-15T01:49:33;1.05;;;0.95;;
56629;SDS011;42502;40.732;-74.254;2022-07-15T01:51:34;1.10;;;1.00;;
56629;SDS011;42502;40.732;-74.254;2022-07-15T01:53:35;1.02;;;0.93;;
56629;SDS011;42502;40.732;-74.254;2022-07-15T01:55:39;1.08;;;0.98;;
56629;SDS011;42502;40.732;-74.254;2022-07-15T01:57:43;1.35;;;1.00;;
56629;SDS011;42502;40.732;-74.254;2022-07-15T01:59:44;0.93;;;0.90;;
56629;SDS011;42502;40.732;-74.254;2022-07-15T02:01:45;1.00;;;1.00;;
56629;SDS011;42502;40.732;-74.254;2022-07-15T02:03:45;1.38;;;1.00;;
56629;SDS011;42502;40.732;-74.254;2022-07-15T02:05:46;1.27;;;1.08;;
56629;SDS011;42502;40.732;-74.254;2022-07-15T02:07:47;1.13;;;1.02;;
56629;SDS011;42502;40.732;-74.254;2022-07-15T02:09:48;1.02;;;0.93;;
56629;SDS011;42502;40.732;-74.254;2022-07-15T02:11:49;2.78;;;1.10;;
56629;SDS011;42502;40.732;-74.254;2022-07-15T02:13:50;1.13;;;0.80;;
56629;SDS011;42502;40.732;-74.254;2022-07-15T02:15:54;1.10;;;1.00;;
56629;SDS011;42502;40.732;-74.254;2022-07-15T02:17:55;2.58;;;1.17;;
56629;SDS011;42502;40.732;-74.254;2022-07-15T02:19:58;1.10;;;0.88;;
56629;SDS011;42502;40.732;-74.254;2022-07-15T02:21:59;1.75;;;1.00;;
56629;SDS011;42502;40.732;-74.254;2022-07-15T02:24:01;1.20;;;1.10;;
56629;SDS011;42502;40.732;-74.254;2022-07-15T02:26:02;1.17;;;1.00;;
56629;SDS011;42502;40.732;-74.254;2022-07-15T02:28:03;0.90;;;0.90;;
56629;SDS011;42502;40.732;-74.254;2022-07-15T02:30:06;1.10;;;1.00;;
56629;SDS011;42502;40.732;-74.254;2022-07-15T02:32:07;0.90;;;0.88;;
56629;SDS011;42502;40.732;-74.254;2022-07-15T02:34:08;1.63;;;1.02;;
56629;SDS011;42502;40.732;-74.254;2022-07-15T02:36:11;1.65;;;1.10;;
56629;SDS011;42502;40.732;-74.254;2022-07-15T02:38:12;0.90;;;0.90;;
56629;SDS011;42502;40.732;-74.254;2022-07-15T02:40:13;1.20;;;1.10;;
56629;SDS011;42502;40.732;-74.254;2022-07-15T02:42:14;1.55;;;0.95;;
56629;SDS011;42502;40.732;-74.254;2022-07-15T02:44:15;1.10;;;1.00;;
56629;SDS011;42502;40.732;-74.254;2022-07-15T02:46:16;1.02;;;0.85;;
56629;SDS011;42502;40.732;-74.254;2022-07-15T02:48:17;1.23;;;1.00;;
56629;SDS011;42502;40.732;-74.254;2022-07-15T02:50:18;0.90;;;0.90;;
56629;SDS011;42502;40.732;-74.254;2022-07-15T02:52:19;1.52;;;1.20;;
56629;SDS011;42502;40.732;-74.254;2022-07-15T02:54:20;1.27;;;1.00;;
56629;SDS011;42502;40.732;-74.254;2022-07-15T02:56:21;1.20;;;1.00;;
56629;SDS011;42502;40.732;-74.254;2022-07-15T02:58:24;1.35;;;1.17;;
56629;SDS011;42502;40.732;-74.254;2022-07-15T03:00:29;1.10;;;1.00;;
56629;SDS011;42502;40.732;-74.254;2022-07-15T03:02:30;2.28;;;1.30;;
56629;SDS011;42502;40.732;-74.254;2022-07-15T03:04:37;2.35;;;1.17;;
56629;SDS011;42502;40.732;-74.254;2022-07-15T03:06:38;1.85;;;1.15;;
56629;SDS011;42502;40.732;-74.254;2022-07-15T03:08:48;1.95;;;1.10;;
56629;SDS011;42502;40.732;-74.254;2022-07-15T03:10:48;1.35;;;1.10;;
56629;SDS011;42502;40.732;-74.254;2022-07-15T03:12:49;4.00;;;1.17;;
56629;SDS011;42502;40.732;-74.254;2022-07-15T03:14:50;1.15;;;1.05;;
56629;SDS011;42502;40.732;-74.254;2022-07-15T03:16:51;1.92;;;1.23;;
56629;SDS011;42502;40.732;-74.254;2022-07-15T03:18:54;1.20;;;0.98;;
56629;SDS011;42502;40.732;-74.254;2022-07-15T03:20:55;1.77;;;1.00;;
56629;SDS011;42502;40.732;-74.254;2022-07-15T03:22:56;1.00;;;0.90;;
56629;SDS011;42502;40.732;-74.254;2022-07-15T03:24:57;1.35;;;0.90;;
56629;SDS011;42502;40.732;-74.254;2022-07-15T03:26:58;1.70;;;1.10;;
56629;SDS011;42502;40.732;-74.254;2022-07-15T03:28:58;1.15;;;1.05;;
56629;SDS011;42502;40.732;-74.254;2022-07-15T03:31:02;1.55;;;1.00;;
56629;SDS011;42502;40.732;-74.254;2022-07-15T03:33:03;4.35;;;1.10;;
56629;SDS011;42502;40.732;-74.254;2022-07-15T03:35:09;1.67;;;1.08;;
56629;SDS011;42502;40.732;-74.254;2022-07-15T03:37:10;2.90;;;1.02;;
56629;SDS011;42502;40.732;-74.254;2022-07-15T03:39:14;1.13;;;1.02;;
56629;SDS011;42502;40.732;-74.254;2022-07-15T03:41:15;1.30;;;1.10;;
56629;SDS011;42502;40.732;-74.254;2022-07-15T03:43:16;1.45;;;1.10;;
56629;SDS011;42502;40.732;-74.254;2022-07-15T03:45:19;2.17;;;1.10;;
56629;SDS011;42502;40.732;-74.254;2022-07-15T03:47:23;2.95;;;1.10;;
56629;SDS011;42502;40.732;-74.254;2022-07-15T03:49:25;1.20;;;1.10;;
56629;SDS011;42502;40.732;-74.254;2022-07-15T03:51:29;0.88;;;0.88;;
56629;SDS011;42502;40.732;-74.254;2022-07-15T03:53:31;1.30;;;1.20;;
56629;SDS011;42502;40.732;-74.254;2022-07-15T03:55:31;1.92;;;1.00;;
56629;SDS011;42502;40.732;-74.254;2022-07-15T03:57:32;1.70;;;1.20;;
56629;SDS011;42502;40.732;-74.254;2022-07-15T03:59:33;1.10;;;1.00;;
56629;SDS011;42502;40.732;-74.254;2022-07-15T04:01:34;2.65;;;0.98;;
56629;SDS011;42502;40.732;-74.254;2022-07-15T04:03:34;2.65;;;1.05;;
56629;SDS011;42502;40.732;-74.254;2022-07-15T04:05:35;1.83;;;1.13;;
56629;SDS011;42502;40.732;-74.254;2022-07-15T04:07:36;1.35;;;1.02;;
56629;SDS011;42502;40.732;-74.254;2022-07-15T04:09:37;1.10;;;1.00;;
56629;SDS011;42502;40.732;-74.254;2022-07-15T04:11:38;1.05;;;1.00;;
56629;SDS011;42502;40.732;-74.254;2022-07-15T04:13:42;1.83;;;1.23;;
56629;SDS011;42502;40.732;-74.254;2022-07-15T04:15:43;1.05;;;1.00;;
56629;SDS011;42502;40.732;-74.254;2022-07-15T04:17:43;1.35;;;1.13;;
56629;SDS011;42502;40.732;-74.254;2022-07-15T04:19:45;1.13;;;1.02;;
56629;SDS011;42502;40.732;-74.254;2022-07-15T04:21:45;2.33;;;1.55;;
56629;SDS011;42502;40.732;-74.254;2022-07-15T04:23:46;1.83;;;1.20;;
56629;SDS011;42502;40.732;-74.254;2022-07-15T04:25:48;1.17;;;1.08;;
56629;SDS011;42502;40.732;-74.254;2022-07-15T04:27:52;1.48;;;1.05;;
56629;SDS011;42502;40.732;-74.254;2022-07-15T04:29:52;1.75;;;0.95;;
56629;SDS011;42502;40.732;-74.254;2022-07-15T04:31:53;1.00;;;0.95;;
56629;SDS011;42502;40.732;-74.254;2022-07-15T04:33:54;2.55;;;1.10;;
56629;SDS011;42502;40.732;-74.254;2022-07-15T04:35:55;3.63;;;1.20;;
56629;SDS011;42502;40.732;-74.254;2022-07-15T04:37:56;3.35;;;1.13;;
56629;SDS011;42502;40.732;-74.254;2022-07-15T04:39:57;1.30;;;1.10;;
56629;SDS011;42502;40.732;-74.254;2022-07-15T04:41:58;1.20;;;1.00;;
56629;SDS011;42502;40.732;-74.254;2022-07-15T04:43:59;2.75;;;1.27;;
56629;SDS011;42502;40.732;-74.254;2022-07-15T04:46:00;1.10;;;1.00;;
56629;SDS011;42502;40.732;-74.254;2022-07-15T04:48:00;1.60;;;1.20;;
56629;SDS011;42502;40.732;-74.254;2022-07-15T04:50:02;1.13;;;1.02;;
56629;SDS011;42502;40.732;-74.254;2022-07-15T04:52:21;1.40;;;1.10;;
56629;SDS011;42502;40.732;-74.254;2022-07-15T04:54:22;1.30;;;1.20;;
56629;SDS011;42502;40.732;-74.254;2022-07-15T04:56:23;1.63;;;1.15;;
56629;SDS011;42502;40.732;-74.254;2022-07-15T04:58:24;1.58;;;1.10;;
56629;SDS011;42502;40.732;-74.254;2022-07-15T05:00:25;1.15;;;0.98;;
56629;SDS011;42502;40.732;-74.254;2022-07-15T05:02:26;2.58;;;1.20;;
56629;SDS011;42502;40.732;-74.254;2022-07-15T05:04:27;1.30;;;1.02;;
56629;SDS011;42502;40.732;-74.254;2022-07-15T05:06:28;1.23;;;1.00;;
56629;SDS011;42502;40.732;-74.254;2022-07-15T05:08:29;1.10;;;1.00;;
56629;SDS011;42502;40.732;-74.254;2022-07-15T05:10:30;1.55;;;1.20;;
56629;SDS011;42502;40.732;-74.254;2022-07-15T05:12:31;2.33;;;1.08;;
56629;SDS011;42502;40.732;-74.254;2022-07-15T05:14:31;1.35;;;0.93;;
56629;SDS011;42502;40.732;-74.254;2022-07-15T05:16:32;1.15;;;1.00;;
56629;SDS011;42502;40.732;-74.254;2022-07-15T05:18:33;1.20;;;1.10;;
56629;SDS011;42502;40.732;-74.254;2022-07-15T05:20:34;1.35;;;1.20;;
56629;SDS011;42502;40.732;-74.254;2022-07-15T05:22:35;1.27;;;1.00;;
56629;SDS011;42502;40.732;-74.254;2022-07-15T05:24:36;1.10;;;1.00;;
56629;SDS011;42502;40.732;-74.254;2022-07-15T05:26:37;2.67;;;1.00;;
56629;SDS011;42502;40.732;-74.254;2022-07-15T05:28:37;1.20;;;1.10;;
56629;SDS011;42502;40.732;-74.254;2022-07-15T05:30:41;1.73;;;1.02;;
56629;SDS011;42502;40.732;-74.254;2022-07-15T05:32:42;1.45;;;1.20;;
56629;SDS011;42502;40.732;-74.254;2022-07-15T05:34:43;1.77;;;1.00;;
56629;SDS011;42502;40.732;-74.254;2022-07-15T05:36:44;1.20;;;1.00;;
56629;SDS011;42502;40.732;-74.254;2022-07-15T05:38:45;1.17;;;1.08;;
56629;SDS011;42502;40.732;-74.254;2022-07-15T05:40:46;1.20;;;1.00;;
56629;SDS011;42502;40.732;-74.254;2022-07-15T05:42:47;1.55;;;1.00;;
56629;SDS011;42502;40.732;-74.254;2022-07-15T05:44:48;1.27;;;1.00;;
56629;SDS011;42502;40.732;-74.254;2022-07-15T05:46:49;2.30;;;1.10;;
56629;SDS011;42502;40.732;-74.254;2022-07-15T05:48:51;1.00;;;0.90;;
56629;SDS011;42502;40.732;-74.254;2022-07-15T05:50:51;1.30;;;1.15;;
56629;SDS011;42502;40.732;-74.254;2022-07-15T05:52:52;1.10;;;1.00;;
56629;SDS011;42502;40.732;-74.254;2022-07-15T05:54:53;1.17;;;1.08;;
56629;SDS011;42502;40.732;-74.254;2022-07-15T05:56:54;1.10;;;1.00;;
56629;SDS011;42502;40.732;-74.254;2022-07-15T05:58:55;1.30;;;1.10;;
56629;SDS011;42502;40.732;-74.254;2022-07-15T06:00:56;1.30;;;1.00;;
56629;SDS011;42502;40.732;-74.254;2022-07-15T06:02:57;1.13;;;1.02;;
56629;SDS011;42502;40.732;-74.254;2022-07-15T06:04:57;1.80;;;1.00;;
56629;SDS011;42502;40.732;-74.254;2022-07-15T06:07:01;1.17;;;1.00;;
56629;SDS011;42502;40.732;-74.254;2022-07-15T06:09:03;1.52;;;1.10;;
56629;SDS011;42502;40.732;-74.254;2022-07-15T06:11:03;1.02;;;0.90;;
56629;SDS011;42502;40.732;-74.254;2022-07-15T06:13:05;1.23;;;1.02;;
56629;SDS011;42502;40.732;-74.254;2022-07-15T06:15:06;0.90;;;0.90;;
56629;SDS011;42502;40.732;-74.254;2022-07-15T06:17:08;1.10;;;1.00;;
56629;SDS011;42502;40.732;-74.254;2022-07-15T06:19:09;1.10;;;1.00;;
56629;SDS011;42502;40.732;-74.254;2022-07-15T06:21:10;1.30;;;1.20;;
56629;SDS011;42502;40.732;-74.254;2022-07-15T06:23:11;1.15;;;1.05;;
56629;SDS011;42502;40.732;-74.254;2022-07-15T06:25:12;1.30;;;1.10;;
56629;SDS011;42502;40.732;-74.254;2022-07-15T06:27:13;1.48;;;1.30;;
56629;SDS011;42502;40.732;-74.254;2022-07-15T06:29:14;1.20;;;1.10;;
56629;SDS011;42502;40.732;-74.254;2022-07-15T06:31:14;3.08;;;1.25;;
56629;SDS011;42502;40.732;-74.254;2022-07-15T06:33:15;1.40;;;1.20;;
56629;SDS011;42502;40.732;-74.254;2022-07-15T06:35:16;1.33;;;1.10;;
56629;SDS011;42502;40.732;-74.254;2022-07-15T06:37:17;3.38;;;1.10;;
56629;SDS011;42502;40.732;-74.254;2022-07-15T06:39:18;1.67;;;1.05;;
56629;SDS011;42502;40.732;-74.254;2022-07-15T06:41:20;1.52;;;1.15;;
56629;SDS011;42502;40.732;-74.254;2022-07-15T06:43:21;1.98;;;1.20;;
56629;SDS011;42502;40.732;-74.254;2022-07-15T06:45:21;2.25;;;1.20;;
56629;SDS011;42502;40.732;-74.254;2022-07-15T06:47:22;2.08;;;1.15;;
56629;SDS011;42502;40.732;-74.254;2022-07-15T06:49:26;1.63;;;1.30;;
56629;SDS011;42502;40.732;-74.254;2022-07-15T06:51:27;1.20;;;1.08;;
56629;SDS011;42502;40.732;-74.254;2022-07-15T06:53:28;1.67;;;1.00;;
56629;SDS011;42502;40.732;-74.254;2022-07-15T06:55:29;1.30;;;1.15;;
56629;SDS011;42502;40.732;-74.254;2022-07-15T06:57:30;2.40;;;1.30;;
56629;SDS011;42502;40.732;-74.254;2022-07-15T06:59:30;1.67;;;1.10;;
56629;SDS011;42502;40.732;-74.254;2022-07-15T07:01:33;1.35;;;1.25;;
56629;SDS011;42502;40.732;-74.254;2022-07-15T07:03:34;1.77;;;1.10;;
56629;SDS011;42502;40.732;-74.254;2022-07-15T07:05:35;1.67;;;1.00;;
56629;SDS011;42502;40.732;-74.254;2022-07-15T07:07:35;1.73;;;1.00;;
56629;SDS011;42502;40.732;-74.254;2022-07-15T07:09:36;1.42;;;1.00;;
56629;SDS011;42502;40.732;-74.254;2022-07-15T07:11:37;1.63;;;1.10;;
56629;SDS011;42502;40.732;-74.254;2022-07-15T07:13:39;1.30;;;1.20;;
56629;SDS011;42502;40.732;-74.254;2022-07-15T07:15:43;1.95;;;1.02;;
56629;SDS011;42502;40.732;-74.254;2022-07-15T07:17:44;3.50;;;1.30;;
56629;SDS011;42502;40.732;-74.254;2022-07-15T07:19:45;1.13;;;1.02;;
56629;SDS011;42502;40.732;-74.254;2022-07-15T07:21:46;2.97;;;1.33;;
56629;SDS011;42502;40.732;-74.254;2022-07-15T07:23:46;1.60;;;1.10;;
56629;SDS011;42502;40.732;-74.254;2022-07-15T07:25:47;1.10;;;1.00;;
56629;SDS011;42502;40.732;-74.254;2022-07-15T07:27:48;1.90;;;1.33;;
56629;SDS011;42502;40.732;-74.254;2022-07-15T07:29:49;1.60;;;0.90;;
56629;SDS011;42502;40.732;-74.254;2022-07-15T07:31:50;1.20;;;1.10;;
56629;SDS011;42502;40.732;-74.254;2022-07-15T07:33:52;1.48;;;1.20;;
56629;SDS011;42502;40.732;-74.254;2022-07-15T07:35:54;1.95;;;1.00;;
56629;SDS011;42502;40.732;-74.254;2022-07-15T07:37:55;0.98;;;0.90;;
56629;SDS011;42502;40.732;-74.254;2022-07-15T07:39:55;1.35;;;1.10;;
56629;SDS011;42502;40.732;-74.254;2022-07-15T07:41:56;1.10;;;1.00;;
56629;SDS011;42502;40.732;-74.254;2022-07-15T07:43:57;2.00;;;1.20;;
56629;SDS011;42502;40.732;-74.254;2022-07-15T07:45:58;1.17;;;1.08;;
56629;SDS011;42502;40.732;-74.254;2022-07-15T07:47:59;1.30;;;1.10;;
56629;SDS011;42502;40.732;-74.254;2022-07-15T07:50:00;1.10;;;0.90;;
56629;SDS011;42502;40.732;-74.254;2022-07-15T07:52:02;1.17;;;1.00;;
56629;SDS011;42502;40.732;-74.254;2022-07-15T07:54:03;1.08;;;0.98;;
56629;SDS011;42502;40.732;-74.254;2022-07-15T07:56:04;1.38;;;1.10;;
56629;SDS011;42502;40.732;-74.254;2022-07-15T07:58:05;1.10;;;1.00;;
56629;SDS011;42502;40.732;-74.254;2022-07-15T08:00:06;1.35;;;1.25;;
56629;SDS011;42502;40.732;-74.254;2022-07-15T08:02:08;1.13;;;1.02;;
56629;SDS011;42502;40.732;-74.254;2022-07-15T08:04:09;2.00;;;1.05;;
56629;SDS011;42502;40.732;-74.254;2022-07-15T08:06:11;2.30;;;1.15;;
56629;SDS011;42502;40.732;-74.254;2022-07-15T08:08:12;1.30;;;0.98;;
56629;SDS011;42502;40.732;-74.254;2022-07-15T08:10:21;1.30;;;1.20;;
56629;SDS011;42502;40.732;-74.254;2022-07-15T08:12:24;1.25;;;1.15;;
56629;SDS011;42502;40.732;-74.254;2022-07-15T08:14:25;1.23;;;1.00;;
56629;SDS011;42502;40.732;-74.254;2022-07-15T08:16:27;1.20;;;1.05;;
56629;SDS011;42502;40.732;-74.254;2022-07-15T08:18:28;1.27;;;1.17;;
56629;SDS011;42502;40.732;-74.254;2022-07-15T08:20:29;1.75;;;1.20;;
56629;SDS011;42502;40.732;-74.254;2022-07-15T08:22:32;1.15;;;1.10;;
56629;SDS011;42502;40.732;-74.254;2022-07-15T08:24:32;1.10;;;0.90;;
56629;SDS011;42502;40.732;-74.254;2022-07-15T08:26:33;2.00;;;1.20;;
56629;SDS011;42502;40.732;-74.254;2022-07-15T08:28:36;1.67;;;1.20;;
56629;SDS011;42502;40.732;-74.254;2022-07-15T08:30:36;1.20;;;1.10;;
56629;SDS011;42502;40.732;-74.254;2022-07-15T08:32:37;2.72;;;1.30;;
56629;SDS011;42502;40.732;-74.254;2022-07-15T08:34:38;1.30;;;1.20;;
56629;SDS011;42502;40.732;-74.254;2022-07-15T08:36:42;1.33;;;1.10;;
56629;SDS011;42502;40.732;-74.254;2022-07-15T08:38:43;1.15;;;1.05;;
56629;SDS011;42502;40.732;-74.254;2022-07-15T08:40:43;1.10;;;1.00;;
56629;SDS011;42502;40.732;-74.254;2022-07-15T08:42:44;1.10;;;1.00;;
56629;SDS011;42502;40.732;-74.254;2022-07-15T08:44:49;1.58;;;1.10;;
56629;SDS011;42502;40.732;-74.254;2022-07-15T08:46:50;1.90;;;1.10;;
56629;SDS011;42502;40.732;-74.254;2022-07-15T08:48:55;1.80;;;1.08;;
56629;SDS011;42502;40.732;-74.254;2022-07-15T08:51:02;1.10;;;1.00;;
56629;SDS011;42502;40.732;-74.254;2022-07-15T08:53:05;1.15;;;1.05;;
56629;SDS011;42502;40.732;-74.254;2022-07-15T08:55:06;1.20;;;1.10;;
56629;SDS011;42502;40.732;-74.254;2022-07-15T08:57:08;1.85;;;1.10;;
56629;SDS011;42502;40.732;-74.254;2022-07-15T08:59:10;1.20;;;1.10;;
56629;SDS011;42502;40.732;-74.254;2022-07-15T09:01:11;2.03;;;1.10;;
56629;SDS011;42502;40.732;-74.254;2022-07-15T09:03:12;1.17;;;1.08;;
56629;SDS011;42502;40.732;-74.254;2022-07-15T09:08:10;1.55;;;1.10;;
56629;SDS011;42502;40.732;-74.254;2022-07-15T09:10:09;1.35;;;1.08;;
56629;SDS011;42502;40.732;-74.254;2022-07-15T09:12:10;1.38;;;1.10;;
56629;SDS011;42502;40.732;-74.254;2022-07-15T09:14:14;2.33;;;1.00;;
56629;SDS011;42502;40.732;-74.254;2022-07-15T09:16:15;1.58;;;1.05;;
56629;SDS011;42502;40.732;-74.254;2022-07-15T09:18:23;1.20;;;1.10;;
56629;SDS011;42502;40.732;-74.254;2022-07-15T09:20:25;1.38;;;1.23;;
56629;SDS011;42502;40.732;-74.254;2022-07-15T09:22:29;1.35;;;1.25;;
56629;SDS011;42502;40.732;-74.254;2022-07-15T09:24:32;1.20;;;1.10;;
56629;SDS011;42502;40.732;-74.254;2022-07-15T09:26:36;1.48;;;1.10;;
56629;SDS011;42502;40.732;-74.254;2022-07-15T09:28:40;1.67;;;1.00;;
56629;SDS011;42502;40.732;-74.254;2022-07-15T09:30:42;1.65;;;1.05;;
56629;SDS011;42502;40.732;-74.254;2022-07-15T09:33:23;1.25;;;1.15;;
56629;SDS011;42502;40.732;-74.254;2022-07-15T09:35:35;2.80;;;1.17;;
56629;SDS011;42502;40.732;-74.254;2022-07-15T09:37:57;2.40;;;1.20;;
56629;SDS011;42502;40.732;-74.254;2022-07-15T09:39:59;1.33;;;1.00;;
56629;SDS011;42502;40.732;-74.254;2022-07-15T09:42:09;2.58;;;1.08;;
56629;SDS011;42502;40.732;-74.254;2022-07-15T09:44:11;1.80;;;1.02;;
56629;SDS011;42502;40.732;-74.254;2022-07-15T09:46:17;2.13;;;1.13;;
56629;SDS011;42502;40.732;-74.254;2022-07-15T09:48:20;1.20;;;1.10;;
56629;SDS011;42502;40.732;-74.254;2022-07-15T09:50:36;2.08;;;1.30;;
56629;SDS011;42502;40.732;-74.254;2022-07-15T09:52:47;1.63;;;1.10;;
56629;SDS011;42502;40.732;-74.254;2022-07-15T09:54:48;1.20;;;1.10;;
56629;SDS011;42502;40.732;-74.254;2022-07-15T09:56:49;1.42;;;1.27;;
56629;SDS011;42502;40.732;-74.254;2022-07-15T09:58:51;1.15;;;1.05;;
56629;SDS011;42502;40.732;-74.254;2022-07-15T10:00:52;1.10;;;1.00;;
56629;SDS011;42502;40.732;-74.254;2022-07-15T10:02:53;1.13;;;1.02;;
56629;SDS011;42502;40.732;-74.254;2022-07-15T10:04:54;1.65;;;1.30;;
56629;SDS011;42502;40.732;-74.254;2022-07-15T10:06:56;2.28;;;1.40;;
56629;SDS011;42502;40.732;-74.254;2022-07-15T10:09:02;1.20;;;1.10;;
56629;SDS011;42502;40.732;-74.254;2022-07-15T10:11:06;1.80;;;1.30;;
56629;SDS011;42502;40.732;-74.254;2022-07-15T10:13:24;1.20;;;1.10;;
56629;SDS011;42502;40.732;-74.254;2022-07-15T10:29:34;1.40;;;1.30;;
56629;SDS011;42502;40.732;-74.254;2022-07-15T10:31:39;1.00;;;0.90;;
56629;SDS011;42502;40.732;-74.254;2022-07-15T10:33:40;2.03;;;1.10;;
56629;SDS011;42502;40.732;-74.254;2022-07-15T10:35:51;2.45;;;1.65;;
56629;SDS011;42502;40.732;-74.254;2022-07-15T10:40:55;1.88;;;1.23;;
56629;SDS011;42502;40.732;-74.254;2022-07-15T10:42:57;1.48;;;1.38;;
56629;SDS011;42502;40.732;-74.254;2022-07-15T10:45:03;1.30;;;1.20;;
56629;SDS011;42502;40.732;-74.254;2022-07-15T10:53:46;2.22;;;1.55;;
56629;SDS011;42502;40.732;-74.254;2022-07-15T10:55:48;1.55;;;1.45;;
56629;SDS011;42502;40.732;-74.254;2022-07-15T10:57:50;1.80;;;1.20;;
56629;SDS011;42502;40.732;-74.254;2022-07-15T10:59:55;1.88;;;1.45;;
56629;SDS011;42502;40.732;-74.254;2022-07-15T11:06:18;1.42;;;1.23;;
56629;SDS011;42502;40.732;-74.254;2022-07-15T11:10:32;1.83;;;1.17;;
56629;SDS011;42502;40.732;-74.254;2022-07-15T11:16:54;1.70;;;1.42;;
56629;SDS011;42502;40.732;-74.254;2022-07-15T11:18:57;1.92;;;1.60;;
56629;SDS011;42502;40.732;-74.254;2022-07-15T11:21:00;1.85;;;1.30;;
56629;SDS011;42502;40.732;-74.254;2022-07-15T11:23:02;1.63;;;1.52;;
56629;SDS011;42502;40.732;-74.254;2022-07-15T11:25:03;1.67;;;1.38;;
56629;SDS011;42502;40.732;-74.254;2022-07-15T11:27:08;2.40;;;1.38;;
56629;SDS011;42502;40.732;-74.254;2022-07-15T11:29:09;1.48;;;1.38;;
56629;SDS011;42502;40.732;-74.254;2022-07-15T11:31:10;2.28;;;1.40;;
56629;SDS011;42502;40.732;-74.254;2022-07-15T11:33:12;1.40;;;1.17;;
56629;SDS011;42502;40.732;-74.254;2022-07-15T11:35:15;1.80;;;1.42;;
56629;SDS011;42502;40.732;-74.254;2022-07-15T11:37:16;2.28;;;1.50;;
56629;SDS011;42502;40.732;-74.254;2022-07-15T11:39:27;2.13;;;1.42;;
56629;SDS011;42502;40.732;-74.254;2022-07-15T11:41:28;1.70;;;1.40;;
56629;SDS011;42502;40.732;-74.254;2022-07-15T11:44:00;1.50;;;1.40;;
56629;SDS011;42502;40.732;-74.254;2022-07-15T11:46:22;1.35;;;1.25;;
56629;SDS011;42502;40.732;-74.254;2022-07-15T11:48:25;3.47;;;1.40;;
56629;SDS011;42502;40.732;-74.254;2022-07-15T11:50:26;1.60;;;1.33;;
56629;SDS011;42502;40.732;-74.254;2022-07-15T11:52:27;2.47;;;1.60;;
56629;SDS011;42502;40.732;-74.254;2022-07-15T11:54:28;2.05;;;1.60;;
56629;SDS011;42502;40.732;-74.254;2022-07-15T11:56:29;2.45;;;1.60;;
56629;SDS011;42502;40.732;-74.254;2022-07-15T11:58:38;1.95;;;1.48;;
56629;SDS011;42502;40.732;-74.254;2022-07-15T12:00:47;3.35;;;1.60;;
56629;SDS011;42502;40.732;-74.254;2022-07-15T12:02:49;1.55;;;1.40;;
56629;SDS011;42502;40.732;-74.254;2022-07-15T12:05:06;2.60;;;1.35;;
56629;SDS011;42502;40.732;-74.254;2022-07-15T12:09:11;3.35;;;1.42;;
56629;SDS011;42502;40.732;-74.254;2022-07-15T12:13:23;2.78;;;1.48;;
56629;SDS011;42502;40.732;-74.254;2022-07-15T12:15:24;3.67;;;1.55;;
56629;SDS011;42502;40.732;-74.254;2022-07-15T12:17:25;2.28;;;1.58;;
56629;SDS011;42502;40.732;-74.254;2022-07-15T12:19:27;2.30;;;1.67;;
56629;SDS011;42502;40.732;-74.254;2022-07-15T12:21:30;2.13;;;1.80;;
56629;SDS011;42502;40.732;-74.254;2022-07-15T12:23:31;1.65;;;1.55;;
56629;SDS011;42502;40.732;-74.254;2022-07-15T12:25:32;3.55;;;1.65;;
56629;SDS011;42502;40.732;-74.254;2022-07-15T12:27:36;2.05;;;1.67;;
56629;SDS011;42502;40.732;-74.254;2022-07-15T12:29:37;2.58;;;1.70;;
56629;SDS011;42502;40.732;-74.254;2022-07-15T12:31:39;2.33;;;1.60;;
56629;SDS011;42502;40.732;-74.254;2022-07-15T12:33:41;2.13;;;1.52;;
56629;SDS011;42502;40.732;-74.254;2022-07-15T12:35:42;3.30;;;1.70;;
56629;SDS011;42502;40.732;-74.254;2022-07-15T12:37:46;1.65;;;1.33;;